createdAt,value
2023-02-03T00:01:24.767Z,3.30
2023-02-03T00:03:52.166Z,3.70
2023-02-03T00:06:19.716Z,3.77
2023-02-03T00:08:47.176Z,3.47
2023-02-03T00:11:14.844Z,3.63
2023-02-03T00:13:42.296Z,3.83
2023-02-03T00:16:09.763Z,3.80
2023-02-03T00:18:37.222Z,3.63
2023-02-03T00:21:04.718Z,2.83
2023-02-03T00:23:32.910Z,3.33
2023-02-03T00:26:10.319Z,3.40
2023-02-03T00:28:38.527Z,3.90
2023-02-03T00:31:06.066Z,3.07
2023-02-03T00:33:34.116Z,3.30
2023-02-03T00:36:06.403Z,3.73
2023-02-03T00:38:33.886Z,3.13
2023-02-03T00:41:01.317Z,3.40
2023-02-03T00:43:29.279Z,3.07
2023-02-03T00:45:56.827Z,3.10
2023-02-03T00:48:24.290Z,3.47
2023-02-03T00:50:51.683Z,3.60
2023-02-03T00:53:19.154Z,3.07
2023-02-03T00:55:46.559Z,3.30
2023-02-03T00:58:13.939Z,3.80
2023-02-03T01:00:41.394Z,3.07
2023-02-03T01:03:08.797Z,3.30
2023-02-03T01:05:36.216Z,3.07
2023-02-03T01:08:03.781Z,3.00
2023-02-03T01:10:32.517Z,2.33
2023-02-03T01:12:59.970Z,2.50
2023-02-03T01:15:28.896Z,2.23
2023-02-03T01:17:56.301Z,2.47
2023-02-03T01:20:24.519Z,3.00
2023-02-03T01:22:52.106Z,2.47
2023-02-03T01:25:19.539Z,3.10
2023-02-03T01:27:47.194Z,2.20
2023-02-03T01:30:14.748Z,2.20
2023-02-03T01:32:42.129Z,2.60
2023-02-03T01:35:09.627Z,1.57
2023-02-03T01:37:37.015Z,1.53
2023-02-03T01:40:05.045Z,2.03
2023-02-03T01:42:34.695Z,2.50
2023-02-03T01:45:02.171Z,2.47
2023-02-03T01:47:38.655Z,1.37
2023-02-03T01:50:09.163Z,2.00
2023-02-03T01:52:37.619Z,2.00
2023-02-03T01:55:06.446Z,2.10
2023-02-03T01:57:37.668Z,2.30
2023-02-03T02:00:06.575Z,1.53
2023-02-03T02:02:41.235Z,1.97
2023-02-03T02:05:29.120Z,1.80
2023-02-03T02:07:57.560Z,1.80
2023-02-03T02:10:25.449Z,2.10
2023-02-03T02:12:55.204Z,2.00
2023-02-03T02:15:28.635Z,1.43
2023-02-03T02:18:17.118Z,1.70
2023-02-03T02:20:54.243Z,1.63
2023-02-03T02:23:21.685Z,1.63
2023-02-03T02:25:56.226Z,1.80
2023-02-03T02:28:23.645Z,1.80
2023-02-03T02:31:11.722Z,1.70
2023-02-03T02:33:42.444Z,1.90
2023-02-03T02:36:19.195Z,2.07
2023-02-03T02:39:03.740Z,1.80
2023-02-03T02:41:37.430Z,1.50
2023-02-03T02:44:09.276Z,2.30
2023-02-03T02:46:48.148Z,1.87
2023-02-03T02:49:18.576Z,2.40
2023-02-03T02:51:48.608Z,0.80
2023-02-03T02:54:19.431Z,1.90
2023-02-03T02:56:49.587Z,2.27
2023-02-03T02:59:17.034Z,1.87
2023-02-03T03:01:44.895Z,2.60
2023-02-03T03:04:14.071Z,1.43
2023-02-03T03:06:48.898Z,3.13
2023-02-03T03:09:20.241Z,1.73
2023-02-03T03:11:52.201Z,2.77
2023-02-03T03:14:21.467Z,3.40
2023-02-03T03:16:55.450Z,2.23
2023-02-03T03:19:25.640Z,3.10
2023-02-03T03:21:55.163Z,3.07
2023-02-03T03:24:25.549Z,2.70
2023-02-03T03:27:02.099Z,3.73
2023-02-03T03:29:29.510Z,4.17
2023-02-03T03:31:57.153Z,3.80
2023-02-03T03:34:24.604Z,3.17
2023-02-03T03:36:58.664Z,2.53
2023-02-03T03:39:35.002Z,3.57
2023-02-03T03:42:25.715Z,2.70
2023-02-03T03:45:22.417Z,4.00
2023-02-03T03:47:58.535Z,2.90
2023-02-03T03:50:46.220Z,3.53
2023-02-03T03:53:15.328Z,3.67
2023-02-03T03:55:44.303Z,3.47
2023-02-03T03:58:14.020Z,2.33
2023-02-03T04:00:42.560Z,1.93
2023-02-03T04:03:14.968Z,3.67
2023-02-03T04:05:42.526Z,2.40
2023-02-03T04:08:10.300Z,2.60
2023-02-03T04:10:39.143Z,3.17
2023-02-03T04:13:07.164Z,2.63
2023-02-03T04:15:34.848Z,2.67
2023-02-03T04:18:02.639Z,2.57
2023-02-03T04:20:31.040Z,3.40
2023-02-03T04:22:58.626Z,3.63
2023-02-03T04:25:26.627Z,2.30
2023-02-03T04:27:54.075Z,2.93
2023-02-03T04:30:21.645Z,3.27
2023-02-03T04:32:49.375Z,2.83
2023-02-03T04:35:16.873Z,3.30
2023-02-03T04:37:44.422Z,3.20
2023-02-03T04:40:12.145Z,2.27
2023-02-03T04:42:39.893Z,3.17
2023-02-03T04:45:08.512Z,1.93
2023-02-03T04:47:36.258Z,2.93
2023-02-03T04:50:03.766Z,3.10
2023-02-03T04:52:31.208Z,2.83
2023-02-03T04:54:58.853Z,3.03
2023-02-03T04:57:26.239Z,1.63
2023-02-03T04:59:53.649Z,2.27
2023-02-03T05:02:21.021Z,3.10
2023-02-03T05:04:48.461Z,3.60
2023-02-03T05:07:15.868Z,2.73
2023-02-03T05:09:43.335Z,3.33
2023-02-03T05:12:10.765Z,1.50
2023-02-03T05:14:38.238Z,1.37
2023-02-03T05:17:06.747Z,5.93
2023-02-03T05:19:34.177Z,1.90
2023-02-03T05:22:01.573Z,3.47
2023-02-03T05:24:28.970Z,3.00
2023-02-03T05:26:56.377Z,4.00
2023-02-03T05:29:23.862Z,3.20
2023-02-03T05:31:51.295Z,3.30
2023-02-03T05:34:18.721Z,3.13
2023-02-03T05:36:46.240Z,2.47
2023-02-03T05:39:13.709Z,2.70
2023-02-03T05:41:53.329Z,2.63
2023-02-03T05:44:21.947Z,2.10
2023-02-03T05:46:49.404Z,2.73
2023-02-03T05:49:16.807Z,2.67
2023-02-03T05:51:44.278Z,1.90
2023-02-03T05:54:11.719Z,2.60
2023-02-03T05:56:39.694Z,4.40
2023-02-03T05:59:07.223Z,4.77
2023-02-03T06:01:35.107Z,3.63
2023-02-03T06:04:02.820Z,3.07
2023-02-03T06:06:33.979Z,3.03
2023-02-03T06:09:10.655Z,3.43
2023-02-03T06:11:38.123Z,1.67
2023-02-03T06:14:05.666Z,3.50
2023-02-03T06:16:33.265Z,3.27
2023-02-03T06:19:02.116Z,4.33
2023-02-03T06:21:29.919Z,2.80
2023-02-03T06:23:57.397Z,4.03
2023-02-03T06:26:25.540Z,1.67
2023-02-03T06:28:53.137Z,2.70
2023-02-03T06:31:20.759Z,2.90
2023-02-03T06:33:48.372Z,2.43
2023-02-03T06:36:15.828Z,2.37
2023-02-03T06:38:43.270Z,3.80
2023-02-03T06:41:10.671Z,1.53
2023-02-03T06:43:38.055Z,1.73
2023-02-03T06:46:05.559Z,1.77
2023-02-03T06:48:32.988Z,1.63
2023-02-03T06:51:00.385Z,1.83
2023-02-03T06:53:27.817Z,1.13
2023-02-03T06:55:55.268Z,2.10
2023-02-03T06:58:22.679Z,1.50
2023-02-03T07:00:51.538Z,1.70
2023-02-03T07:03:19.172Z,0.80
2023-02-03T07:05:46.587Z,1.33
2023-02-03T07:08:13.972Z,1.80
2023-02-03T07:10:42.009Z,1.33
2023-02-03T07:13:09.646Z,1.10
2023-02-03T07:15:37.173Z,1.50
2023-02-03T07:18:07.160Z,1.23
2023-02-03T07:20:34.547Z,1.27
2023-02-03T07:23:02.089Z,1.53
2023-02-03T07:25:32.345Z,1.30
2023-02-03T07:27:59.804Z,1.30
2023-02-03T07:30:27.609Z,1.23
2023-02-03T07:32:57.483Z,1.27
2023-02-03T07:35:25.551Z,1.37
2023-02-03T07:37:52.962Z,1.20
2023-02-03T07:40:21.108Z,1.60
2023-02-03T07:42:50.160Z,1.03
2023-02-03T07:45:18.102Z,1.20
2023-02-03T07:47:48.000Z,1.20
2023-02-03T07:50:15.400Z,1.43
2023-02-03T07:52:42.839Z,1.17
2023-02-03T07:55:12.761Z,0.87
2023-02-03T07:57:43.603Z,1.00
2023-02-03T08:00:12.453Z,1.40
2023-02-03T08:02:40.336Z,1.00
2023-02-03T08:05:08.030Z,0.97
2023-02-03T08:07:35.493Z,1.70
2023-02-03T08:10:03.010Z,0.87
2023-02-03T08:12:30.411Z,1.47
2023-02-03T08:14:57.813Z,1.23
2023-02-03T08:17:25.328Z,1.27
2023-02-03T08:19:52.740Z,1.10
2023-02-03T08:22:20.208Z,1.40
2023-02-03T08:24:47.959Z,1.23
2023-02-03T08:27:21.472Z,1.20
2023-02-03T08:29:49.215Z,1.60
2023-02-03T08:32:21.774Z,1.00
2023-02-03T08:34:50.240Z,1.33
2023-02-03T08:37:18.583Z,1.50
2023-02-03T08:39:46.027Z,1.80
2023-02-03T08:42:13.536Z,1.50
2023-02-03T08:44:41.452Z,1.33
2023-02-03T08:47:08.923Z,1.40
2023-02-03T08:49:39.393Z,1.97
2023-02-03T08:52:07.532Z,1.63
2023-02-03T08:54:35.004Z,1.60
2023-02-03T08:57:02.457Z,1.90
2023-02-03T08:59:31.121Z,1.67
2023-02-03T09:01:59.961Z,1.00
2023-02-03T09:04:27.419Z,0.97
2023-02-03T09:06:55.484Z,1.57
2023-02-03T09:09:23.473Z,1.40
2023-02-03T09:11:50.868Z,1.60
2023-02-03T09:14:18.388Z,1.63
2023-02-03T09:16:45.823Z,1.57
2023-02-03T09:19:13.700Z,1.67
2023-02-03T09:21:43.471Z,1.80
2023-02-03T09:24:11.849Z,1.20
2023-02-03T09:26:39.232Z,1.40
2023-02-03T09:29:08.147Z,1.47
2023-02-03T09:31:35.818Z,1.23
2023-02-03T09:34:03.309Z,1.20
2023-02-03T09:36:33.219Z,1.03
2023-02-03T09:39:00.805Z,1.27
2023-02-03T09:42:03.561Z,1.30
2023-02-03T09:44:30.960Z,1.70
2023-02-03T09:47:01.305Z,1.40
2023-02-03T09:49:36.377Z,1.50
2023-02-03T09:52:05.228Z,1.00
2023-02-03T09:54:43.613Z,1.00
2023-02-03T09:57:17.693Z,1.43
2023-02-03T09:59:45.160Z,1.40
2023-02-03T10:02:31.081Z,1.10
2023-02-03T10:05:11.217Z,1.57
2023-02-03T10:07:58.855Z,1.37
2023-02-03T10:10:44.844Z,1.50
2023-02-03T10:13:16.640Z,1.40
2023-02-03T10:16:07.357Z,1.30
2023-02-03T10:18:37.495Z,1.47
2023-02-03T10:21:08.094Z,0.80
2023-02-03T10:23:40.015Z,1.63
2023-02-03T10:26:10.023Z,1.27
2023-02-03T10:28:43.304Z,1.60
2023-02-03T10:31:18.600Z,1.60
2023-02-03T10:33:46.693Z,1.10
2023-02-03T10:36:21.698Z,1.70
2023-02-03T10:38:49.125Z,1.40
2023-02-03T10:41:17.985Z,1.60
2023-02-03T10:43:51.825Z,1.50
2023-02-03T10:46:19.404Z,1.53
2023-02-03T10:48:46.925Z,1.90
2023-02-03T10:51:27.203Z,1.60
2023-02-03T10:53:55.129Z,1.77
2023-02-03T10:56:33.180Z,1.50
2023-02-03T10:59:01.504Z,1.20
2023-02-03T11:01:49.212Z,1.57
2023-02-03T11:04:35.134Z,1.80
2023-02-03T11:07:06.151Z,0.77
2023-02-03T11:09:38.332Z,1.37
2023-02-03T11:12:13.033Z,1.67
2023-02-03T11:14:44.255Z,1.60
2023-02-03T11:17:32.960Z,1.67
2023-02-03T11:20:17.184Z,1.23
2023-02-03T11:22:45.277Z,1.37
2023-02-03T11:25:21.422Z,1.60
2023-02-03T11:27:49.033Z,1.67
2023-02-03T11:30:21.264Z,1.40
2023-02-03T11:32:49.355Z,1.70
2023-02-03T11:35:18.866Z,1.40
2023-02-03T11:37:47.709Z,1.40
2023-02-03T11:40:18.309Z,1.40
2023-02-03T11:42:47.049Z,1.60
2023-02-03T11:45:23.539Z,1.00
2023-02-03T11:47:56.205Z,1.07
2023-02-03T11:50:41.783Z,1.60
2023-02-03T11:53:23.677Z,1.60
2023-02-03T11:56:10.388Z,1.63
2023-02-03T11:58:46.931Z,1.70
2023-02-03T12:01:26.565Z,1.50
2023-02-03T12:03:56.939Z,1.40
2023-02-03T12:06:44.632Z,1.60
2023-02-03T12:09:12.030Z,1.50
2023-02-03T12:11:49.907Z,1.37
2023-02-03T12:14:17.422Z,1.40
2023-02-03T12:16:47.920Z,1.50
2023-02-03T12:19:23.835Z,1.53
2023-02-03T12:21:55.983Z,1.60
2023-02-03T12:24:27.748Z,1.30
2023-02-03T12:27:15.533Z,1.43
2023-02-03T12:29:46.564Z,1.70
2023-02-03T12:32:30.320Z,1.77
2023-02-03T12:35:14.266Z,1.70
2023-02-03T12:37:53.215Z,1.30
2023-02-03T12:40:44.074Z,1.63
2023-02-03T12:43:31.726Z,1.60
2023-02-03T12:46:02.783Z,1.60
2023-02-03T12:48:33.731Z,1.70
2023-02-03T12:51:03.111Z,1.10
2023-02-03T12:53:38.742Z,1.37
2023-02-03T12:56:11.211Z,1.23
2023-02-03T12:59:02.047Z,1.40
2023-02-03T13:01:34.166Z,1.60
2023-02-03T13:04:05.012Z,1.07
2023-02-03T13:06:51.247Z,1.40
2023-02-03T13:09:51.231Z,1.20
2023-02-03T13:12:38.853Z,1.07
2023-02-03T13:15:21.562Z,1.30
2023-02-03T13:17:48.927Z,1.40
2023-02-03T13:20:27.579Z,1.30
2023-02-03T13:22:55.361Z,1.27
2023-02-03T13:25:48.824Z,1.70
2023-02-03T13:28:34.517Z,1.13
2023-02-03T13:31:25.344Z,1.40
2023-02-03T13:34:11.576Z,1.07
2023-02-03T13:36:41.878Z,1.40
2023-02-03T13:39:29.634Z,0.80
2023-02-03T13:42:12.867Z,1.10
2023-02-03T13:44:40.591Z,1.03
2023-02-03T13:47:15.315Z,1.60
2023-02-03T13:49:48.370Z,1.03
2023-02-03T13:52:34.636Z,1.47
2023-02-03T13:55:03.222Z,1.20
2023-02-03T13:57:34.577Z,1.10
2023-02-03T14:00:03.545Z,1.37
2023-02-03T14:02:46.550Z,0.90
2023-02-03T14:05:32.644Z,1.10
2023-02-03T14:08:20.110Z,1.10
2023-02-03T14:10:47.590Z,0.40
2023-02-03T14:13:22.127Z,0.80
2023-02-03T14:16:09.457Z,1.00
2023-02-03T14:18:45.106Z,0.87
2023-02-03T14:21:18.255Z,0.80
2023-02-03T14:24:05.933Z,0.80
2023-02-03T14:26:38.732Z,1.03
2023-02-03T14:29:06.859Z,0.70
2023-02-03T14:31:53.206Z,0.83
2023-02-03T14:34:28.940Z,0.57
2023-02-03T14:36:57.204Z,0.80
2023-02-03T14:39:30.761Z,0.60
2023-02-03T14:42:16.761Z,0.80
2023-02-03T14:44:44.166Z,0.70
2023-02-03T14:47:11.742Z,0.63
2023-02-03T14:49:48.068Z,0.73
2023-02-03T14:52:15.487Z,1.00
2023-02-03T14:54:55.305Z,0.90
2023-02-03T14:57:38.710Z,1.10
2023-02-03T15:00:06.297Z,0.90
2023-02-03T15:02:34.718Z,0.80
2023-02-03T15:05:14.483Z,0.80
2023-02-03T15:07:48.756Z,0.80
2023-02-03T15:10:18.042Z,0.73
2023-02-03T15:12:46.934Z,0.70
2023-02-03T15:15:15.579Z,0.80
2023-02-03T15:17:43.061Z,0.70
2023-02-03T15:20:38.839Z,0.93
2023-02-03T15:23:19.100Z,0.60
2023-02-03T15:25:46.580Z,0.90
2023-02-03T15:28:17.057Z,0.80
2023-02-03T15:30:45.239Z,0.70
2023-02-03T15:33:15.886Z,0.80
2023-02-03T15:35:45.204Z,0.70
2023-02-03T15:38:18.144Z,0.80
2023-02-03T15:40:49.689Z,0.70
2023-02-03T15:43:26.078Z,0.80
2023-02-03T15:45:53.588Z,0.60
2023-02-03T15:48:39.954Z,0.60
2023-02-03T15:51:10.215Z,0.83
2023-02-03T15:53:47.990Z,0.80
2023-02-03T15:56:21.480Z,0.80
2023-02-03T15:58:49.677Z,0.80
2023-02-03T16:01:20.213Z,0.60
2023-02-03T16:03:49.681Z,0.60
2023-02-03T16:06:17.057Z,0.50
2023-02-03T16:08:46.454Z,0.60
2023-02-03T16:11:32.803Z,0.67
2023-02-03T16:14:04.707Z,0.50
2023-02-03T16:16:55.256Z,0.40
2023-02-03T16:19:32.507Z,0.60
2023-02-03T16:22:00.101Z,0.60
2023-02-03T16:24:30.739Z,0.50
2023-02-03T16:27:18.105Z,0.47
2023-02-03T16:30:04.145Z,0.40
2023-02-03T16:32:50.134Z,0.60
2023-02-03T16:35:36.093Z,0.60
2023-02-03T16:38:34.352Z,0.60
2023-02-03T16:41:20.535Z,0.63
2023-02-03T16:44:06.711Z,0.60
2023-02-03T16:46:53.004Z,0.60
2023-02-03T16:49:39.397Z,0.60
2023-02-03T16:52:09.265Z,0.40
2023-02-03T16:54:36.672Z,0.60
2023-02-03T16:57:04.113Z,0.50
2023-02-03T16:59:31.731Z,0.70
2023-02-03T17:01:59.303Z,0.60
2023-02-03T17:04:26.745Z,0.50
2023-02-03T17:06:54.195Z,0.70
2023-02-03T17:09:25.095Z,0.43
2023-02-03T17:11:52.749Z,0.60
2023-02-03T17:14:20.811Z,0.60
2023-02-03T17:16:48.330Z,0.70
2023-02-03T17:19:15.800Z,0.70
2023-02-03T17:21:43.241Z,0.67
2023-02-03T17:24:10.691Z,0.53
2023-02-03T17:26:38.188Z,0.67
2023-02-03T17:29:05.619Z,0.70
2023-02-03T17:31:33.474Z,0.53
2023-02-03T17:34:03.421Z,0.63
2023-02-03T17:36:30.873Z,0.70
2023-02-03T17:55:27.802Z,0.50
2023-02-03T17:57:55.360Z,0.60
2023-02-03T18:00:22.860Z,0.60
2023-02-03T18:02:51.415Z,0.63
2023-02-03T18:05:19.012Z,0.60
2023-02-03T18:10:21.261Z,0.63
2023-02-03T18:12:48.674Z,0.80
2023-02-03T18:15:16.692Z,0.70
2023-02-03T18:17:46.555Z,0.80
2023-02-03T18:20:14.058Z,0.67
2023-02-03T18:22:41.462Z,0.80
2023-02-03T18:25:09.770Z,0.70
2023-02-03T18:27:37.239Z,0.70
2023-02-03T18:30:05.002Z,0.60
2023-02-03T18:32:32.448Z,0.57
2023-02-03T18:35:00.904Z,0.80
2023-02-03T18:37:28.495Z,0.77
2023-02-03T18:39:55.907Z,0.83
2023-02-03T18:42:23.360Z,0.53
2023-02-03T18:44:50.756Z,0.60
2023-02-03T18:47:18.184Z,0.73
2023-02-03T18:49:47.958Z,0.87
2023-02-03T18:52:15.394Z,0.77
2023-02-03T18:54:42.833Z,1.17
2023-02-03T18:57:13.988Z,0.77
2023-02-03T18:59:41.510Z,1.00
2023-02-03T19:02:11.172Z,0.97
2023-02-03T19:04:38.631Z,0.73
2023-02-03T19:07:06.168Z,1.00
2023-02-03T19:09:34.135Z,1.00
2023-02-03T19:12:05.051Z,1.10
2023-02-03T19:14:33.132Z,1.17
2023-02-03T19:17:00.636Z,1.40
2023-02-03T19:19:28.055Z,1.00
2023-02-03T19:21:55.559Z,1.20
2023-02-03T19:24:24.977Z,1.30
2023-02-03T19:26:52.381Z,0.93
2023-02-03T19:29:19.807Z,1.20
2023-02-03T19:31:47.417Z,1.00
2023-02-03T19:34:17.835Z,1.03
2023-02-03T19:36:47.114Z,0.83
2023-02-03T19:39:14.838Z,1.30
2023-02-03T19:41:42.472Z,1.10
2023-02-03T19:44:10.001Z,0.80
2023-02-03T19:46:38.021Z,1.20
2023-02-03T19:49:13.127Z,1.27
2023-02-03T19:51:43.217Z,1.50
2023-02-03T19:54:16.521Z,1.30
2023-02-03T19:56:46.657Z,1.43
2023-02-03T19:59:14.134Z,1.47
2023-02-03T20:01:42.472Z,1.50
2023-02-03T20:04:12.686Z,1.20
2023-02-03T20:06:40.233Z,1.60
2023-02-03T20:09:07.682Z,1.77
2023-02-03T20:11:35.147Z,1.33
2023-02-03T20:14:02.622Z,1.60
2023-02-03T20:16:30.119Z,1.37
2023-02-03T20:18:58.201Z,1.57
2023-02-03T20:21:25.628Z,1.10
2023-02-03T20:23:53.786Z,1.47
2023-02-03T20:26:23.539Z,1.30
2023-02-03T20:28:50.939Z,1.53
2023-02-03T20:31:18.505Z,1.50
2023-02-03T20:33:48.426Z,1.23
2023-02-03T20:36:15.928Z,1.60
2023-02-03T20:38:43.385Z,1.57
2023-02-03T20:41:12.068Z,1.53
2023-02-03T20:43:39.631Z,1.53
2023-02-03T20:46:11.607Z,1.50
2023-02-03T20:48:39.018Z,1.47
2023-02-03T20:51:16.881Z,1.90
2023-02-03T20:53:44.650Z,0.93
2023-02-03T20:56:18.978Z,1.37
2023-02-03T20:58:46.486Z,1.20
2023-02-03T21:01:33.282Z,1.70
2023-02-03T21:04:19.422Z,1.23
2023-02-03T21:06:46.834Z,1.50
2023-02-03T21:09:15.742Z,1.50
2023-02-03T21:11:43.640Z,1.33
2023-02-03T21:14:22.249Z,1.50
2023-02-03T21:16:50.035Z,1.87
2023-02-03T21:19:28.682Z,1.40
2023-02-03T21:21:56.611Z,4.53
2023-02-03T21:24:30.585Z,2.00
2023-02-03T21:26:58.969Z,1.23
2023-02-03T21:29:36.918Z,1.40
2023-02-03T21:32:04.714Z,1.63
2023-02-03T21:34:33.538Z,1.40
2023-02-03T21:37:19.753Z,1.43
2023-02-03T21:39:48.097Z,1.60
2023-02-03T21:42:40.900Z,0.97
2023-02-03T21:45:17.730Z,1.80
2023-02-03T21:47:45.940Z,1.57
2023-02-03T21:50:31.035Z,1.57
2023-02-03T21:53:19.102Z,1.43
2023-02-03T21:55:47.000Z,1.70
2023-02-03T21:58:25.898Z,1.10
2023-02-03T22:00:57.895Z,1.50
2023-02-03T22:03:28.608Z,1.47
2023-02-03T22:06:14.743Z,2.00
2023-02-03T22:08:43.828Z,1.37
2023-02-03T22:11:11.727Z,1.83
2023-02-03T22:13:39.307Z,1.80
2023-02-03T22:16:08.009Z,1.70
2023-02-03T22:18:36.687Z,1.83
2023-02-03T22:21:04.432Z,1.33
2023-02-03T22:23:32.956Z,1.60
2023-02-03T22:26:02.290Z,1.80
2023-02-03T22:28:31.125Z,1.60
2023-02-03T22:31:04.871Z,1.77
2023-02-03T22:33:32.830Z,1.80
2023-02-03T22:36:00.343Z,1.13
2023-02-03T22:38:27.837Z,1.97
2023-02-03T22:40:55.241Z,1.70
2023-02-03T22:43:22.630Z,1.30
2023-02-03T22:45:50.073Z,1.47
2023-02-03T22:48:17.471Z,1.80
2023-02-03T22:50:44.896Z,1.63
2023-02-03T22:53:12.323Z,1.50
2023-02-03T22:55:40.126Z,1.43
2023-02-03T22:58:08.179Z,1.60
2023-02-03T23:00:35.913Z,1.50
2023-02-03T23:03:04.239Z,1.70
2023-02-03T23:05:31.684Z,1.53
2023-02-03T23:07:59.082Z,1.80
2023-02-03T23:10:30.869Z,1.60
2023-02-03T23:13:00.638Z,1.50
2023-02-03T23:15:28.853Z,1.60
2023-02-03T23:17:56.383Z,1.30
2023-02-03T23:20:23.803Z,1.10
2023-02-03T23:22:51.254Z,1.60
2023-02-03T23:25:18.659Z,1.77
2023-02-03T23:27:46.195Z,1.70
2023-02-03T23:30:14.288Z,1.23
2023-02-03T23:32:41.776Z,2.20
2023-02-03T23:35:28.481Z,1.10
2023-02-03T23:37:55.890Z,1.50
2023-02-03T23:40:23.363Z,1.70
2023-02-03T23:42:50.914Z,1.30
2023-02-03T23:45:18.442Z,1.60
2023-02-03T23:47:46.520Z,1.50
2023-02-03T23:50:19.033Z,1.70
2023-02-03T23:52:46.736Z,1.57
2023-02-03T23:55:15.599Z,1.40
2023-02-03T23:57:43.258Z,1.60
